sensor_id;sensor_type;location;lat;lon;timestamp;pressure;altitude;pressure_sealevel;temperature;humidity
31585;BME280;18191;51.288;12.390;2023-03-03T00:01:30;48996.91;;;-144.47;90.20
31585;BME280;18191;51.288;12.390;2023-03-03T00:06:21;49014.81;;;-144.47;89.95
31585;BME280;18191;51.288;12.390;2023-03-03T00:11:13;49056.59;;;-144.47;90.24
31585;BME280;18191;51.288;12.390;2023-03-03T00:16:11;49074.47;;;-144.47;91.86
31585;BME280;18191;51.288;12.390;2023-03-03T00:21:03;49032.72;;;-144.47;91.71
31585;BME280;18191;51.288;12.390;2023-03-03T00:26:01;49046.63;;;-144.47;91.24
31585;BME280;18191;51.288;12.390;2023-03-03T00:30:52;49060.56;;;-144.47;91.66
31585;BME280;18191;51.288;12.390;2023-03-03T00:35:43;49042.66;;;-144.47;92.28
31585;BME280;18191;51.288;12.390;2023-03-03T00:40:36;49076.47;;;-144.47;91.96
31585;BME280;18191;51.288;12.390;2023-03-03T00:50:25;49040.66;;;-144.47;92.85
31585;BME280;18191;51.288;12.390;2023-03-03T00:55:16;49040.66;;;-144.47;92.24
31585;BME280;18191;51.288;12.390;2023-03-03T01:00:06;49082.44;;;-144.47;92.43
31585;BME280;18191;51.288;12.390;2023-03-03T01:04:57;49024.75;;;-144.47;92.42
31585;BME280;18191;51.288;12.390;2023-03-03T01:09:47;49044.66;;;-144.47;91.49
31585;BME280;18191;51.288;12.390;2023-03-03T01:14:38;49016.78;;;-144.47;91.27
31585;BME280;18191;51.288;12.390;2023-03-03T01:19:28;49044.66;;;-144.47;91.32
31585;BME280;18191;51.288;12.390;2023-03-03T01:24:18;49020.78;;;-144.47;91.23
31585;BME280;18191;51.288;12.390;2023-03-03T01:29:08;49020.78;;;-144.47;91.53
31585;BME280;18191;51.288;12.390;2023-03-03T01:33:59;49034.69;;;-144.47;92.32
31585;BME280;18191;51.288;12.390;2023-03-03T01:38:49;49046.63;;;-144.47;91.78
31585;BME280;18191;51.288;12.390;2023-03-03T01:43:43;49030.72;;;-144.47;90.88
31585;BME280;18191;51.288;12.390;2023-03-03T01:48:42;49086.41;;;-144.47;92.00
31585;BME280;18191;51.288;12.390;2023-03-03T01:53:35;49046.63;;;-144.47;89.72
31585;BME280;18191;51.288;12.390;2023-03-03T01:58:27;49042.66;;;-144.47;89.37
31585;BME280;18191;51.288;12.390;2023-03-03T02:03:18;49052.59;;;-144.47;89.88
31585;BME280;18191;51.288;12.390;2023-03-03T02:08:09;49078.47;;;-144.47;91.32
31585;BME280;18191;51.288;12.390;2023-03-03T02:13:02;49072.50;;;-144.47;89.37
31585;BME280;18191;51.288;12.390;2023-03-03T02:17:53;49054.59;;;-144.47;90.40
31585;BME280;18191;51.288;12.390;2023-03-03T02:23:19;49082.44;;;-144.47;92.06
31585;BME280;18191;51.288;12.390;2023-03-03T02:28:01;49040.66;;;-144.47;91.67
31585;BME280;18191;51.288;12.390;2023-03-03T02:32:51;49082.44;;;-144.47;92.24
31585;BME280;18191;51.288;12.390;2023-03-03T02:37:41;49032.72;;;-144.47;90.88
31585;BME280;18191;51.288;12.390;2023-03-03T02:42:32;49034.69;;;-144.47;91.22
31585;BME280;18191;51.288;12.390;2023-03-03T02:47:22;49022.75;;;-144.47;92.14
31585;BME280;18191;51.288;12.390;2023-03-03T02:52:13;49052.59;;;-144.47;92.79
31585;BME280;18191;51.288;12.390;2023-03-03T02:57:04;49064.53;;;-144.47;91.45
31585;BME280;18191;51.288;12.390;2023-03-03T03:01:54;49060.56;;;-144.47;90.66
31585;BME280;18191;51.288;12.390;2023-03-03T03:06:44;49040.66;;;-144.47;92.10
31585;BME280;18191;51.288;12.390;2023-03-03T03:11:35;49068.50;;;-144.47;91.77
31585;BME280;18191;51.288;12.390;2023-03-03T03:16:25;49060.56;;;-144.47;91.59
31585;BME280;18191;51.288;12.390;2023-03-03T03:21:16;49068.50;;;-144.47;91.51
31585;BME280;18191;51.288;12.390;2023-03-03T03:26:06;48996.91;;;-144.47;91.53
31585;BME280;18191;51.288;12.390;2023-03-03T03:30:57;49044.66;;;-144.47;88.53
31585;BME280;18191;51.288;12.390;2023-03-03T03:35:47;48994.91;;;-144.47;90.50
31585;BME280;18191;51.288;12.390;2023-03-03T03:40:37;49050.63;;;-144.47;89.28
31585;BME280;18191;51.288;12.390;2023-03-03T03:45:28;49026.75;;;-144.47;90.87
31585;BME280;18191;51.288;12.390;2023-03-03T03:50:18;49052.59;;;-144.47;92.47
31585;BME280;18191;51.288;12.390;2023-03-03T03:55:09;49052.59;;;-144.47;93.06
31585;BME280;18191;51.288;12.390;2023-03-03T03:59:59;49028.72;;;-144.47;91.74
31585;BME280;18191;51.288;12.390;2023-03-03T04:04:49;49048.63;;;-144.47;92.19
31585;BME280;18191;51.288;12.390;2023-03-03T04:09:40;49016.78;;;-144.47;92.28
31585;BME280;18191;51.288;12.390;2023-03-03T04:14:30;49018.78;;;-144.47;93.13
31585;BME280;18191;51.288;12.390;2023-03-03T04:19:20;49044.66;;;-144.47;94.14
31585;BME280;18191;51.288;12.390;2023-03-03T04:24:10;49038.69;;;-144.47;92.47
31585;BME280;18191;51.288;12.390;2023-03-03T04:29:00;49056.59;;;-144.47;91.27
31585;BME280;18191;51.288;12.390;2023-03-03T04:33:51;49042.66;;;-144.47;92.36
31585;BME280;18191;51.288;12.390;2023-03-03T04:38:42;49026.75;;;-144.47;92.72
31585;BME280;18191;51.288;12.390;2023-03-03T04:43:32;49024.75;;;-144.47;92.83
31585;BME280;18191;51.288;12.390;2023-03-03T04:48:22;49048.63;;;-144.47;91.64
31585;BME280;18191;51.288;12.390;2023-03-03T04:53:12;49016.78;;;-144.47;90.91
31585;BME280;18191;51.288;12.390;2023-03-03T04:58:03;49052.59;;;-144.47;90.86
31585;BME280;18191;51.288;12.390;2023-03-03T05:02:53;49054.59;;;-144.47;90.67
31585;BME280;18191;51.288;12.390;2023-03-03T05:07:44;49040.66;;;-144.47;91.62
31585;BME280;18191;51.288;12.390;2023-03-03T05:12:34;49028.72;;;-144.47;91.66
31585;BME280;18191;51.288;12.390;2023-03-03T05:17:24;49074.47;;;-144.47;90.84
31585;BME280;18191;51.288;12.390;2023-03-03T05:22:14;49072.50;;;-144.47;91.02
31585;BME280;18191;51.288;12.390;2023-03-03T05:27:05;49036.69;;;-144.47;91.42
31585;BME280;18191;51.288;12.390;2023-03-03T05:31:55;49056.59;;;-144.47;91.28
31585;BME280;18191;51.288;12.390;2023-03-03T05:36:45;49040.66;;;-144.47;91.58
31585;BME280;18191;51.288;12.390;2023-03-03T05:41:35;49030.72;;;-144.47;91.28
31585;BME280;18191;51.288;12.390;2023-03-03T05:46:25;49032.72;;;-144.47;92.38
31585;BME280;18191;51.288;12.390;2023-03-03T05:51:16;49016.78;;;-144.47;91.75
31585;BME280;18191;51.288;12.390;2023-03-03T05:56:06;49060.56;;;-144.47;92.51
31585;BME280;18191;51.288;12.390;2023-03-03T06:00:56;49008.84;;;-144.47;91.29
31585;BME280;18191;51.288;12.390;2023-03-03T06:05:46;49016.78;;;-144.47;92.08
31585;BME280;18191;51.288;12.390;2023-03-03T06:10:36;49038.69;;;-144.47;90.76
31585;BME280;18191;51.288;12.390;2023-03-03T06:15:27;49024.75;;;-144.47;89.65
31585;BME280;18191;51.288;12.390;2023-03-03T06:20:17;49040.66;;;-144.47;89.31
31585;BME280;18191;51.288;12.390;2023-03-03T06:25:07;49048.63;;;-144.47;90.22
31585;BME280;18191;51.288;12.390;2023-03-03T06:29:57;49086.41;;;-144.47;90.65
31585;BME280;18191;51.288;12.390;2023-03-03T06:34:47;49050.63;;;-144.47;90.61
31585;BME280;18191;51.288;12.390;2023-03-03T06:39:38;49018.78;;;-144.47;90.75
31585;BME280;18191;51.288;12.390;2023-03-03T06:44:28;49032.72;;;-144.47;89.98
31585;BME280;18191;51.288;12.390;2023-03-03T06:49:18;49048.63;;;-144.47;91.64
31585;BME280;18191;51.288;12.390;2023-03-03T06:54:10;49058.56;;;-144.47;91.01
31585;BME280;18191;51.288;12.390;2023-03-03T06:59:01;49062.56;;;-144.47;88.93
31585;BME280;18191;51.288;12.390;2023-03-03T07:03:52;49020.78;;;-144.47;88.70
31585;BME280;18191;51.288;12.390;2023-03-03T07:08:43;49024.75;;;-144.47;89.15
31585;BME280;18191;51.288;12.390;2023-03-03T07:13:33;49050.63;;;-144.47;89.61
31585;BME280;18191;51.288;12.390;2023-03-03T07:18:39;49032.72;;;-144.47;89.47
31585;BME280;18191;51.288;12.390;2023-03-03T07:23:37;49054.59;;;-144.47;88.67
31585;BME280;18191;51.288;12.390;2023-03-03T07:28:31;49036.69;;;-144.47;88.63
31585;BME280;18191;51.288;12.390;2023-03-03T07:33:28;49036.69;;;-144.47;88.10
31585;BME280;18191;51.288;12.390;2023-03-03T07:38:30;49024.75;;;-144.47;88.14
31585;BME280;18191;51.288;12.390;2023-03-03T07:43:30;49036.69;;;-144.47;86.87
31585;BME280;18191;51.288;12.390;2023-03-03T07:48:24;49054.59;;;-144.47;85.72
31585;BME280;18191;51.288;12.390;2023-03-03T07:53:24;49038.69;;;-144.47;84.70
31585;BME280;18191;51.288;12.390;2023-03-03T07:58:19;49038.69;;;-144.47;84.12
31585;BME280;18191;51.288;12.390;2023-03-03T08:03:11;49044.66;;;-144.47;84.67
31585;BME280;18191;51.288;12.390;2023-03-03T08:08:12;49032.72;;;-144.47;86.55
31585;BME280;18191;51.288;12.390;2023-03-03T08:13:14;48994.91;;;-144.47;83.89
31585;BME280;18191;51.288;12.390;2023-03-03T08:18:18;49050.63;;;-144.47;82.27
31585;BME280;18191;51.288;12.390;2023-03-03T08:23:10;49020.78;;;-144.47;83.45
31585;BME280;18191;51.288;12.390;2023-03-03T08:28:01;49050.63;;;-144.47;81.31
31585;BME280;18191;51.288;12.390;2023-03-03T08:32:51;49012.81;;;-144.47;78.99
31585;BME280;18191;51.288;12.390;2023-03-03T08:37:41;49050.63;;;-144.47;80.28
31585;BME280;18191;51.288;12.390;2023-03-03T08:42:31;49012.81;;;-144.47;81.63
31585;BME280;18191;51.288;12.390;2023-03-03T08:47:21;48992.94;;;-144.47;78.53
31585;BME280;18191;51.288;12.390;2023-03-03T08:52:12;49032.72;;;-144.47;78.30
31585;BME280;18191;51.288;12.390;2023-03-03T08:57:02;49044.66;;;-144.47;78.17
31585;BME280;18191;51.288;12.390;2023-03-03T09:01:52;49066.53;;;-144.47;77.57
31585;BME280;18191;51.288;12.390;2023-03-03T09:06:42;49034.69;;;-144.47;76.82
31585;BME280;18191;51.288;12.390;2023-03-03T09:11:32;49028.72;;;-144.47;74.54
31585;BME280;18191;51.288;12.390;2023-03-03T09:16:23;48996.91;;;-144.47;75.56
31585;BME280;18191;51.288;12.390;2023-03-03T09:21:24;48998.91;;;-144.47;76.22
31585;BME280;18191;51.288;12.390;2023-03-03T09:31:28;49016.78;;;-144.47;76.32
31585;BME280;18191;51.288;12.390;2023-03-03T09:36:24;49024.75;;;-144.47;76.38
31585;BME280;18191;51.288;12.390;2023-03-03T09:41:22;48996.91;;;-144.47;76.28
31585;BME280;18191;51.288;12.390;2023-03-03T09:56:24;49032.72;;;-144.47;74.69
31585;BME280;18191;51.288;12.390;2023-03-03T10:06:28;49036.69;;;-144.47;74.15
31585;BME280;18191;51.288;12.390;2023-03-03T10:16:34;49024.75;;;-144.47;74.38
31585;BME280;18191;51.288;12.390;2023-03-03T10:26:32;49024.75;;;-144.47;74.47
31585;BME280;18191;51.288;12.390;2023-03-03T10:31:33;49044.66;;;-144.47;74.26
31585;BME280;18191;51.288;12.390;2023-03-03T10:46:51;49004.84;;;-144.47;72.20
31585;BME280;18191;51.288;12.390;2023-03-03T10:51:57;48992.94;;;-144.47;73.33
31585;BME280;18191;51.288;12.390;2023-03-03T10:57:02;48992.94;;;-144.47;73.58
31585;BME280;18191;51.288;12.390;2023-03-03T11:02:06;49000.88;;;-144.47;72.86
31585;BME280;18191;51.288;12.390;2023-03-03T11:07:04;49012.81;;;-144.47;73.58
31585;BME280;18191;51.288;12.390;2023-03-03T11:12:09;49024.75;;;-144.47;73.56
31585;BME280;18191;51.288;12.390;2023-03-03T11:17:12;49002.88;;;-144.47;73.01
31585;BME280;18191;51.288;12.390;2023-03-03T11:22:18;49020.78;;;-144.47;70.87
31585;BME280;18191;51.288;12.390;2023-03-03T11:37:48;49038.69;;;-144.47;72.72
31585;BME280;18191;51.288;12.390;2023-03-03T11:42:48;49040.66;;;-144.47;72.58
31585;BME280;18191;51.288;12.390;2023-03-03T12:03:07;48996.91;;;-144.47;71.91
31585;BME280;18191;51.288;12.390;2023-03-03T12:08:16;49004.84;;;-144.47;72.43
31585;BME280;18191;51.288;12.390;2023-03-03T12:13:12;49020.78;;;-144.47;72.25
31585;BME280;18191;51.288;12.390;2023-03-03T12:28:21;49004.84;;;-144.47;73.06
31585;BME280;18191;51.288;12.390;2023-03-03T12:38:16;49000.88;;;-144.47;73.66
31585;BME280;18191;51.288;12.390;2023-03-03T12:43:16;49020.78;;;-144.47;74.06
31585;BME280;18191;51.288;12.390;2023-03-03T12:48:16;49000.88;;;-144.47;72.61
31585;BME280;18191;51.288;12.390;2023-03-03T12:53:18;49032.72;;;-144.47;73.26
31585;BME280;18191;51.288;12.390;2023-03-03T12:58:34;49020.78;;;-144.47;72.48
31585;BME280;18191;51.288;12.390;2023-03-03T13:13:37;49068.50;;;-144.47;71.31
31585;BME280;18191;51.288;12.390;2023-03-03T13:23:38;49028.72;;;-144.47;72.83
31585;BME280;18191;51.288;12.390;2023-03-03T13:28:35;49028.72;;;-144.47;72.04
31585;BME280;18191;51.288;12.390;2023-03-03T13:33:33;49028.72;;;-144.47;71.82
31585;BME280;18191;51.288;12.390;2023-03-03T13:38:28;48963.09;;;-144.47;70.86
31585;BME280;18191;51.288;12.390;2023-03-03T13:44:03;48986.97;;;-144.47;71.18
31585;BME280;18191;51.288;12.390;2023-03-03T13:48:37;49044.66;;;-144.47;72.45
31585;BME280;18191;51.288;12.390;2023-03-03T13:53:40;49016.78;;;-144.47;72.56
31585;BME280;18191;51.288;12.390;2023-03-03T14:14:02;48977.00;;;-144.47;74.31
31585;BME280;18191;51.288;12.390;2023-03-03T14:19:02;49016.78;;;-144.47;74.28
31585;BME280;18191;51.288;12.390;2023-03-03T14:24:00;49032.72;;;-144.47;75.16
31585;BME280;18191;51.288;12.390;2023-03-03T14:29:02;49038.69;;;-144.47;75.22
31585;BME280;18191;51.288;12.390;2023-03-03T14:34:00;49044.66;;;-144.47;73.36
31585;BME280;18191;51.288;12.390;2023-03-03T14:38:51;49030.72;;;-144.47;74.40
31585;BME280;18191;51.288;12.390;2023-03-03T14:43:42;49014.81;;;-144.47;74.03
31585;BME280;18191;51.288;12.390;2023-03-03T14:48:34;49024.75;;;-144.47;73.49
31585;BME280;18191;51.288;12.390;2023-03-03T14:53:41;49048.63;;;-144.47;74.64
31585;BME280;18191;51.288;12.390;2023-03-03T14:58:37;49020.78;;;-144.47;74.03
31585;BME280;18191;51.288;12.390;2023-03-03T15:03:28;49012.81;;;-144.47;73.69
31585;BME280;18191;51.288;12.390;2023-03-03T15:08:23;49018.78;;;-144.47;75.50
31585;BME280;18191;51.288;12.390;2023-03-03T15:18:09;49028.72;;;-144.47;75.51
31585;BME280;18191;51.288;12.390;2023-03-03T15:38:14;49016.78;;;-144.47;74.77
31585;BME280;18191;51.288;12.390;2023-03-03T15:43:26;49032.72;;;-144.47;74.03
31585;BME280;18191;51.288;12.390;2023-03-03T16:03:38;49046.63;;;-144.47;74.48
31585;BME280;18191;51.288;12.390;2023-03-03T16:23:12;49038.69;;;-144.47;74.99
31585;BME280;18191;51.288;12.390;2023-03-03T16:28:07;49012.81;;;-144.47;76.10
31585;BME280;18191;51.288;12.390;2023-03-03T16:33:14;49042.66;;;-144.47;74.77
31585;BME280;18191;51.288;12.390;2023-03-03T16:38:17;49016.78;;;-144.47;74.74
31585;BME280;18191;51.288;12.390;2023-03-03T16:48:18;49016.78;;;-144.47;74.18
31585;BME280;18191;51.288;12.390;2023-03-03T16:53:24;49024.75;;;-144.47;75.47
31585;BME280;18191;51.288;12.390;2023-03-03T17:13:37;49008.84;;;-144.47;76.96
31585;BME280;18191;51.288;12.390;2023-03-03T17:18:42;49032.72;;;-144.47;77.39
31585;BME280;18191;51.288;12.390;2023-03-03T17:28:53;48977.00;;;-144.47;77.37
31585;BME280;18191;51.288;12.390;2023-03-03T17:33:52;48996.91;;;-144.47;77.63
31585;BME280;18191;51.288;12.390;2023-03-03T17:38:52;49060.56;;;-144.47;77.79
31585;BME280;18191;51.288;12.390;2023-03-03T17:43:52;49056.59;;;-144.47;77.96
31585;BME280;18191;51.288;12.390;2023-03-03T17:48:58;49028.72;;;-144.47;77.90
31585;BME280;18191;51.288;12.390;2023-03-03T17:53:57;49048.63;;;-144.47;78.50
31585;BME280;18191;51.288;12.390;2023-03-03T18:04:19;49064.53;;;-144.47;78.85
31585;BME280;18191;51.288;12.390;2023-03-03T18:19:15;49034.69;;;-144.47;77.59
31585;BME280;18191;51.288;12.390;2023-03-03T18:24:26;49046.63;;;-144.47;78.12
31585;BME280;18191;51.288;12.390;2023-03-03T18:34:08;49026.75;;;-144.47;75.98
31585;BME280;18191;51.288;12.390;2023-03-03T18:39:14;49006.84;;;-144.47;76.83
31585;BME280;18191;51.288;12.390;2023-03-03T18:44:22;49020.78;;;-144.47;77.79
31585;BME280;18191;51.288;12.390;2023-03-03T18:49:13;49020.78;;;-144.47;78.58
31585;BME280;18191;51.288;12.390;2023-03-03T19:04:20;49052.59;;;-144.47;78.30
31585;BME280;18191;51.288;12.390;2023-03-03T19:09:11;49036.69;;;-144.47;78.27
31585;BME280;18191;51.288;12.390;2023-03-03T19:19:12;49008.84;;;-144.47;78.80
31585;BME280;18191;51.288;12.390;2023-03-03T19:29:29;49044.66;;;-144.47;79.61
31585;BME280;18191;51.288;12.390;2023-03-03T19:34:24;49028.72;;;-144.47;79.89
31585;BME280;18191;51.288;12.390;2023-03-03T19:54:17;49002.88;;;-144.47;79.32
31585;BME280;18191;51.288;12.390;2023-03-03T19:59:15;49032.72;;;-144.47;78.91
31585;BME280;18191;51.288;12.390;2023-03-03T20:09:37;49032.72;;;-144.47;79.27
31585;BME280;18191;51.288;12.390;2023-03-03T20:14:41;49024.75;;;-144.47;79.40
31585;BME280;18191;51.288;12.390;2023-03-03T20:24:42;49044.66;;;-144.47;78.85
31585;BME280;18191;51.288;12.390;2023-03-03T20:39:46;49004.84;;;-144.47;77.48
31585;BME280;18191;51.288;12.390;2023-03-03T20:44:52;49048.63;;;-144.47;78.10
31585;BME280;18191;51.288;12.390;2023-03-03T20:54:50;49072.50;;;-144.47;78.93
31585;BME280;18191;51.288;12.390;2023-03-03T21:00:04;49044.66;;;-144.47;78.23
31585;BME280;18191;51.288;12.390;2023-03-03T21:05:06;49036.69;;;-144.47;78.74
31585;BME280;18191;51.288;12.390;2023-03-03T21:15:30;49032.72;;;-144.47;78.84
31585;BME280;18191;51.288;12.390;2023-03-03T21:20:30;49068.50;;;-144.47;78.08
31585;BME280;18191;51.288;12.390;2023-03-03T21:30:29;49016.78;;;-144.47;78.01
31585;BME280;18191;51.288;12.390;2023-03-03T21:35:20;49052.59;;;-144.47;78.25
31585;BME280;18191;51.288;12.390;2023-03-03T21:40:17;49060.56;;;-144.47;78.60
31585;BME280;18191;51.288;12.390;2023-03-03T21:45:10;49024.75;;;-144.47;77.59
31585;BME280;18191;51.288;12.390;2023-03-03T21:50:01;49040.66;;;-144.47;78.66
31585;BME280;18191;51.288;12.390;2023-03-03T21:54:51;49028.72;;;-144.47;78.67
31585;BME280;18191;51.288;12.390;2023-03-03T21:59:41;49028.72;;;-144.47;79.99
31585;BME280;18191;51.288;12.390;2023-03-03T22:04:31;49062.56;;;-144.47;79.34
31585;BME280;18191;51.288;12.390;2023-03-03T22:09:22;49050.63;;;-144.47;80.34
31585;BME280;18191;51.288;12.390;2023-03-03T22:14:12;49032.72;;;-144.47;80.18
31585;BME280;18191;51.288;12.390;2023-03-03T22:19:03;49040.66;;;-144.47;78.28
31585;BME280;18191;51.288;12.390;2023-03-03T22:23:54;49002.88;;;-144.47;78.32
31585;BME280;18191;51.288;12.390;2023-03-03T22:28:44;49060.56;;;-144.47;78.46
31585;BME280;18191;51.288;12.390;2023-03-03T22:33:34;49024.75;;;-144.47;78.16
31585;BME280;18191;51.288;12.390;2023-03-03T22:38:24;49020.78;;;-144.47;79.36
31585;BME280;18191;51.288;12.390;2023-03-03T22:43:14;49012.81;;;-144.47;79.05
31585;BME280;18191;51.288;12.390;2023-03-03T22:48:05;49046.63;;;-144.47;79.38
31585;BME280;18191;51.288;12.390;2023-03-03T22:52:55;49040.66;;;-144.47;78.76
31585;BME280;18191;51.288;12.390;2023-03-03T22:57:45;49020.78;;;-144.47;78.71
31585;BME280;18191;51.288;12.390;2023-03-03T23:02:36;48994.91;;;-144.47;78.71
31585;BME280;18191;51.288;12.390;2023-03-03T23:07:27;49054.59;;;-144.47;79.40
31585;BME280;18191;51.288;12.390;2023-03-03T23:12:17;49060.56;;;-144.47;78.93
31585;BME280;18191;51.288;12.390;2023-03-03T23:17:07;49000.88;;;-144.47;79.34
31585;BME280;18191;51.288;12.390;2023-03-03T23:21:58;49052.59;;;-144.47;79.08
31585;BME280;18191;51.288;12.390;2023-03-03T23:26:48;49030.72;;;-144.47;79.87
31585;BME280;18191;51.288;12.390;2023-03-03T23:31:45;49036.69;;;-144.47;80.39
31585;BME280;18191;51.288;12.390;2023-03-03T23:36:35;49040.66;;;-144.47;79.62
31585;BME280;18191;51.288;12.390;2023-03-03T23:41:25;49062.56;;;-144.47;79.75
31585;BME280;18191;51.288;12.390;2023-03-03T23:46:15;49052.59;;;-144.47;80.37
31585;BME280;18191;51.288;12.390;2023-03-03T23:51:06;49050.63;;;-144.47;80.57
31585;BME280;18191;51.288;12.390;2023-03-03T23:55:56;49048.63;;;-144.47;80.83
